Time,TemperatureF,DewpointF,PressureIn,WindDirection,WindDirectionDegrees,WindSpeedMPH,WindSpeedGustMPH,Humidity,HourlyPrecipIn,Conditions,Clouds,dailyrainin,SoftwareType,DateUTC
2013-05-16 00:14:00,66.8,64.0,29.94,ESE,119,2.0,4.0,90,0.00,,,0.00,weatherlink.com 1.10,2013-05-16 05:14:00,
2013-05-16 00:29:00,67.0,64.0,29.95,SSE,157,1.0,4.0,90,0.00,,,0.00,weatherlink.com 1.10,2013-05-16 05:29:00,
2013-05-16 00:44:00,67.1,64.0,29.95,SE,128,1.0,3.0,90,0.00,,,0.00,weatherlink.com 1.10,2013-05-16 05:44:00,
2013-05-16 00:59:00,67.1,64.0,29.95,SE,132,1.0,6.0,90,0.00,,,0.00,weatherlink.com 1.10,2013-05-16 05:59:00,
2013-05-16 01:14:00,67.2,64.0,29.93,SSE,161,1.0,9.0,90,0.00,,,0.00,weatherlink.com 1.10,2013-05-16 06:14:00,
2013-05-16 01:29:00,67.1,64.0,29.93,SE,142,3.0,5.0,90,0.00,,,0.00,weatherlink.com 1.10,2013-05-16 06:29:00,
2013-05-16 01:44:00,67.2,64.0,29.93,South,174,2.0,9.0,90,0.00,,,0.00,weatherlink.com 1.10,2013-05-16 06:44:00,
2013-05-16 01:59:00,67.3,64.0,29.93,East,100,2.0,6.0,90,0.00,,,0.00,weatherlink.com 1.10,2013-05-16 06:59:00,
2013-05-16 02:14:00,67.3,64.0,29.92,SSE,151,1.0,4.0,90,0.00,,,0.00,weatherlink.com 1.10,2013-05-16 07:14:00,
2013-05-16 02:29:00,67.3,64.0,29.91,SSE,152,0.0,4.0,90,0.00,,,0.00,weatherlink.com 1.10,2013-05-16 07:29:00,
2013-05-16 02:44:00,67.3,64.0,29.91,SE,132,1.0,6.0,90,0.00,,,0.00,weatherlink.com 1.10,2013-05-16 07:44:00,
2013-05-16 02:59:00,67.3,64.0,29.92,SSE,159,1.0,5.0,90,0.00,,,0.00,weatherlink.com 1.10,2013-05-16 07:59:00,
2013-05-16 03:14:00,67.4,65.0,29.92,South,169,1.0,3.0,90,0.00,,,0.00,weatherlink.com 1.10,2013-05-16 08:14:00,
2013-05-16 03:29:00,67.6,65.0,29.93,South,169,1.0,2.0,90,0.00,,,0.00,weatherlink.com 1.10,2013-05-16 08:29:00,
2013-05-16 03:44:00,67.6,65.0,29.93,SE,140,1.0,4.0,90,0.00,,,0.00,weatherlink.com 1.10,2013-05-16 08:44:00,
2013-05-16 03:59:00,67.6,65.0,29.92,SSE,153,3.0,6.0,90,0.04,,,0.04,weatherlink.com 1.10,2013-05-16 08:59:00,
2013-05-16 04:14:00,67.3,65.0,29.93,SSE,165,3.0,5.0,91,0.06,,,0.06,weatherlink.com 1.10,2013-05-16 09:14:00,
2013-05-16 04:29:00,67.3,65.0,29.93,South,173,4.0,4.0,92,0.09,,,0.09,weatherlink.com 1.10,2013-05-16 09:29:00,
2013-05-16 04:44:00,66.6,64.0,29.93,SSW,208,0.0,4.0,91,0.10,,,0.10,weatherlink.com 1.10,2013-05-16 09:44:00,
2013-05-16 04:59:00,66.1,64.0,29.92,SE,146,3.0,3.0,91,0.07,,,0.11,weatherlink.com 1.10,2013-05-16 09:59:00,
2013-05-16 05:14:00,65.4,63.0,29.91,South,172,1.0,4.0,91,0.06,,,0.12,weatherlink.com 1.10,2013-05-16 10:14:00,
2013-05-16 05:29:00,64.9,63.0,29.89,SSE,147,1.0,5.0,92,0.03,,,0.12,weatherlink.com 1.10,2013-05-16 10:29:00,
2013-05-16 05:44:00,64.6,62.0,29.89,SSE,155,1.0,3.0,92,0.02,,,0.12,weatherlink.com 1.10,2013-05-16 10:44:00,
2013-05-16 05:59:00,64.5,62.0,29.92,SSE,159,0.0,4.0,92,0.01,,,0.12,weatherlink.com 1.10,2013-05-16 10:59:00,
2013-05-16 06:14:00,64.4,62.0,29.91,SE,139,1.0,6.0,92,0.00,,,0.12,weatherlink.com 1.10,2013-05-16 11:14:00,
2013-05-16 06:29:00,64.3,62.0,29.91,SSE,154,3.0,4.0,93,0.00,,,0.12,weatherlink.com 1.10,2013-05-16 11:29:00,
2013-05-16 06:44:00,64.2,62.0,29.91,South,169,3.0,5.0,92,0.01,,,0.13,weatherlink.com 1.10,2013-05-16 11:44:00,
2013-05-16 07:00:00,63.9,62.0,29.90,SE,136,3.0,8.0,92,0.04,,,0.16,weatherlink.com 1.10,2013-05-16 12:00:00,
2013-05-16 07:15:00,63.7,61.0,29.87,South,171,3.0,8.0,92,0.05,,,0.17,weatherlink.com 1.10,2013-05-16 12:15:00,
2013-05-16 07:30:00,63.7,61.0,29.85,South,169,5.0,18.0,91,0.06,,,0.18,weatherlink.com 1.10,2013-05-16 12:30:00,
2013-05-16 07:45:00,63.7,61.0,29.83,SSE,161,3.0,8.0,91,0.05,,,0.18,weatherlink.com 1.10,2013-05-16 12:45:00,
2013-05-16 08:00:00,64.1,62.0,29.83,SSE,165,3.0,9.0,92,0.02,,,0.18,weatherlink.com 1.10,2013-05-16 13:00:00,
2013-05-16 08:15:00,64.3,62.0,29.86,South,173,0.0,5.0,92,0.01,,,0.18,weatherlink.com 1.10,2013-05-16 13:15:00,
2013-05-16 08:30:00,64.5,62.0,29.86,East,96,0.0,2.0,92,0.00,,,0.18,weatherlink.com 1.10,2013-05-16 13:30:00,
2013-05-16 08:45:00,64.5,62.0,29.87,East,96,0.0,0.0,92,0.00,,,0.18,weatherlink.com 1.10,2013-05-16 13:45:00,
2013-05-16 09:00:00,66.1,64.0,29.89,South,175,1.0,3.0,93,0.00,,,0.18,weatherlink.com 1.10,2013-05-16 14:00:00,
2013-05-16 09:15:00,67.9,65.0,29.90,NW,316,0.0,3.0,89,0.00,,,0.18,weatherlink.com 1.10,2013-05-16 14:15:00,
2013-05-16 09:30:00,70.4,65.0,29.89,SE,144,1.0,4.0,84,0.00,,,0.18,weatherlink.com 1.10,2013-05-16 14:30:00,
2013-05-16 09:45:00,73.1,67.0,29.89,SE,140,0.0,3.0,80,0.00,,,0.18,weatherlink.com 1.10,2013-05-16 14:45:00,
2013-05-16 10:00:00,74.9,67.0,29.89,SSW,199,0.0,3.0,77,0.00,,,0.18,weatherlink.com 1.10,2013-05-16 15:00:00,
2013-05-16 10:15:00,76.6,67.0,29.89,SE,126,0.0,5.0,73,0.00,,,0.18,weatherlink.com 1.10,2013-05-16 15:15:00,
2013-05-16 10:30:00,77.7,68.0,29.89,South,181,1.0,5.0,73,0.00,,,0.18,weatherlink.com 1.10,2013-05-16 15:30:00,
2013-05-16 10:45:00,79.1,68.0,29.89,SSE,154,3.0,4.0,69,0.00,,,0.18,weatherlink.com 1.10,2013-05-16 15:45:00,
2013-05-16 11:00:00,80.7,69.0,29.88,SSE,159,1.0,6.0,68,0.00,,,0.18,weatherlink.com 1.10,2013-05-16 16:00:00,
2013-05-16 11:15:00,82.7,70.0,29.88,SSE,150,2.0,7.0,66,0.00,,,0.18,weatherlink.com 1.10,2013-05-16 16:15:00,
2013-05-16 11:30:00,83.8,70.0,29.88,South,180,2.0,4.0,64,0.00,,,0.18,weatherlink.com 1.10,2013-05-16 16:30:00,
2013-05-16 11:45:00,85.2,71.0,29.88,South,173,1.0,6.0,63,0.00,,,0.18,weatherlink.com 1.10,2013-05-16 16:45:00,
2013-05-16 12:00:00,85.2,70.0,29.88,SSE,165,2.0,6.0,61,0.00,,,0.18,weatherlink.com 1.10,2013-05-16 17:00:00,
2013-05-16 12:15:00,86.4,70.0,29.88,SSE,157,4.0,7.0,58,0.00,,,0.18,weatherlink.com 1.10,2013-05-16 17:15:00,
2013-05-16 12:30:00,87.2,70.0,29.88,SE,128,3.0,8.0,57,0.00,,,0.18,weatherlink.com 1.10,2013-05-16 17:30:00,
2013-05-16 12:45:00,87.0,70.0,29.87,South,169,3.0,6.0,58,0.00,,,0.18,weatherlink.com 1.10,2013-05-16 17:45:00,
2013-05-16 13:00:00,86.3,70.0,29.87,SSE,163,3.0,8.0,59,0.00,,,0.18,weatherlink.com 1.10,2013-05-16 18:00:00,
2013-05-16 13:15:00,86.9,70.0,29.87,South,170,4.0,8.0,57,0.00,,,0.18,weatherlink.com 1.10,2013-05-16 18:15:00,
2013-05-16 13:30:00,87.8,72.0,29.86,SE,128,3.0,6.0,59,0.00,,,0.18,weatherlink.com 1.10,2013-05-16 18:30:00,
2013-05-16 13:45:00,86.3,69.0,29.86,South,178,3.0,8.0,57,0.00,,,0.18,weatherlink.com 1.10,2013-05-16 18:45:00,
2013-05-16 14:00:00,86.1,70.0,29.86,SSW,202,3.0,6.0,59,0.00,,,0.18,weatherlink.com 1.10,2013-05-16 19:00:00,
2013-05-16 14:15:00,84.0,69.0,29.86,SE,142,5.0,8.0,61,0.00,,,0.18,weatherlink.com 1.10,2013-05-16 19:15:00,
2013-05-16 14:30:00,86.0,70.0,29.85,SSE,163,4.0,6.0,60,0.00,,,0.18,weatherlink.com 1.10,2013-05-16 19:30:00,
2013-05-16 14:46:00,86.0,69.0,29.85,South,176,4.0,6.0,58,0.00,,,0.18,weatherlink.com 1.10,2013-05-16 19:46:00,
2013-05-16 15:01:00,85.5,68.0,29.85,SE,124,3.0,7.0,57,0.00,,,0.18,weatherlink.com 1.10,2013-05-16 20:01:00,
2013-05-16 15:16:00,83.7,69.0,29.85,SSE,165,4.0,10.0,61,0.00,,,0.18,weatherlink.com 1.10,2013-05-16 20:16:00,
2013-05-16 15:31:00,83.0,69.0,29.84,SSE,153,3.0,5.0,63,0.00,,,0.18,weatherlink.com 1.10,2013-05-16 20:31:00,
2013-05-16 15:46:00,83.0,69.0,29.84,SSE,158,2.0,6.0,63,0.00,,,0.18,weatherlink.com 1.10,2013-05-16 20:46:00,
2013-05-16 16:01:00,83.3,69.0,29.83,SSE,150,2.0,7.0,62,0.00,,,0.18,weatherlink.com 1.10,2013-05-16 21:01:00,
2013-05-16 16:16:00,83.4,69.0,29.83,SSE,150,1.0,10.0,62,0.00,,,0.18,weatherlink.com 1.10,2013-05-16 21:16:00,
2013-05-16 16:31:00,81.9,69.0,29.83,SSE,164,4.0,8.0,64,0.00,,,0.18,weatherlink.com 1.10,2013-05-16 21:31:00,
2013-05-16 16:46:00,81.5,69.0,29.83,SSE,159,2.0,3.0,65,0.00,,,0.18,weatherlink.com 1.10,2013-05-16 21:46:00,
2013-05-16 17:01:00,81.2,69.0,29.83,SSE,161,1.0,9.0,66,0.00,,,0.18,weatherlink.com 1.10,2013-05-16 22:01:00,
2013-05-16 17:16:00,80.9,69.0,29.83,SSE,155,0.0,3.0,68,0.00,,,0.18,weatherlink.com 1.10,2013-05-16 22:16:00,
2013-05-16 17:31:00,80.5,69.0,29.83,SSE,157,0.0,3.0,68,0.00,,,0.18,weatherlink.com 1.10,2013-05-16 22:31:00,
2013-05-16 17:46:00,80.0,69.0,29.83,SSE,148,2.0,3.0,70,0.00,,,0.18,weatherlink.com 1.10,2013-05-16 22:46:00,
2013-05-16 18:01:00,80.0,69.0,29.83,SE,140,1.0,4.0,70,0.00,,,0.18,weatherlink.com 1.10,2013-05-16 23:01:00,
2013-05-16 18:16:00,79.5,69.0,29.83,SSW,209,2.0,8.0,70,0.00,,,0.18,weatherlink.com 1.10,2013-05-16 23:16:00,
2013-05-16 18:31:00,78.8,69.0,29.83,SSW,194,1.0,6.0,72,0.00,,,0.18,weatherlink.com 1.10,2013-05-16 23:31:00,
2013-05-16 18:46:00,78.2,69.0,29.83,SE,137,3.0,6.0,73,0.00,,,0.18,weatherlink.com 1.10,2013-05-16 23:46:00,
2013-05-16 19:01:00,77.6,69.0,29.83,SE,125,3.0,14.0,74,0.00,,,0.18,weatherlink.com 1.10,2013-05-17 00:01:00,
2013-05-16 19:16:00,77.1,69.0,29.83,SSE,158,2.0,4.0,75,0.00,,,0.18,weatherlink.com 1.10,2013-05-17 00:16:00,
2013-05-16 19:31:00,76.6,69.0,29.83,SE,146,3.0,4.0,77,0.00,,,0.18,weatherlink.com 1.10,2013-05-17 00:31:00,
2013-05-16 19:46:00,76.1,69.0,29.83,SSE,150,0.0,4.0,78,0.00,,,0.18,weatherlink.com 1.10,2013-05-17 00:46:00,
2013-05-16 20:01:00,75.7,69.0,29.84,SSE,155,3.0,10.0,79,0.00,,,0.18,weatherlink.com 1.10,2013-05-17 01:01:00,
2013-05-16 20:16:00,75.3,69.0,29.84,SSE,153,1.0,8.0,80,0.00,,,0.18,weatherlink.com 1.10,2013-05-17 01:16:00,
2013-05-16 20:31:00,74.9,69.0,29.84,SE,142,3.0,5.0,81,0.00,,,0.18,weatherlink.com 1.10,2013-05-17 01:31:00,
2013-05-16 20:46:00,74.4,68.0,29.83,SSE,156,2.0,7.0,81,0.00,,,0.18,weatherlink.com 1.10,2013-05-17 01:46:00,
2013-05-16 21:01:00,74.0,68.0,29.84,SE,139,3.0,6.0,82,0.00,,,0.18,weatherlink.com 1.10,2013-05-17 02:01:00,
2013-05-16 21:16:00,73.7,68.0,29.84,SSE,168,2.0,7.0,83,0.00,,,0.18,weatherlink.com 1.10,2013-05-17 02:16:00,
2013-05-16 21:31:00,73.6,69.0,29.85,SSE,165,1.0,7.0,84,0.00,,,0.18,weatherlink.com 1.10,2013-05-17 02:31:00,
2013-05-16 21:46:00,73.5,68.0,29.85,SE,126,0.0,4.0,84,0.00,,,0.18,weatherlink.com 1.10,2013-05-17 02:46:00,
2013-05-16 22:01:00,73.3,68.0,29.86,SSE,150,3.0,5.0,84,0.00,,,0.18,weatherlink.com 1.10,2013-05-17 03:01:00,
2013-05-16 22:16:00,73.1,68.0,29.86,SSE,159,1.0,5.0,85,0.00,,,0.18,weatherlink.com 1.10,2013-05-17 03:16:00,
2013-05-16 22:31:00,73.0,68.0,29.86,SSE,155,1.0,5.0,85,0.00,,,0.18,weatherlink.com 1.10,2013-05-17 03:31:00,
2013-05-16 22:46:00,72.9,69.0,29.87,SE,127,2.0,10.0,86,0.00,,,0.18,weatherlink.com 1.10,2013-05-17 03:46:00,
2013-05-16 23:01:00,72.8,68.0,29.87,SSE,161,2.0,4.0,86,0.00,,,0.18,weatherlink.com 1.10,2013-05-17 04:01:00,
2013-05-16 23:16:00,72.7,68.0,29.87,SSE,155,2.0,7.0,86,0.00,,,0.18,weatherlink.com 1.10,2013-05-17 04:16:00,
2013-05-16 23:31:00,72.7,68.0,29.87,South,185,3.0,6.0,86,0.00,,,0.18,weatherlink.com 1.10,2013-05-17 04:31:00,
2013-05-16 23:46:00,72.6,68.0,29.87,South,175,2.0,4.0,86,0.00,,,0.18,weatherlink.com 1.10,2013-05-17 04:46:00,